Time;durP1;ratioP1;P1;durP2;ratioP2;P2;SDS_P1;SDS_P2;PMS_P1;PMS_P2;Temp;Humidity;BMP_temperature;BMP_pressure;BME280_temperature;BME280_humidity;BME280_pressure;Samples;Min_cycle;Max_cycle;Signal;HPM_P1;HPM_P2
2022/12/21 00:02:09;;;;;;;;;9.25;7.75;;;;;-146.50;100.00;59256.41;5089901;27;45465;-74
2022/12/21 00:04:34;;;;;;;;;8.00;7.00;;;;;-146.50;100.00;59256.41;5074224;27;45298;-74
2022/12/21 00:06:59;;;;;;;;;8.75;7.75;;;;;-146.50;100.00;59256.41;5074070;27;45739;-75
2022/12/21 00:09:25;;;;;;;;;7.75;7.75;;;;;-146.50;100.00;59256.41;5074158;27;45467;-74
2022/12/21 00:11:50;;;;;;;;;9.00;9.00;;;;;-146.50;100.00;59256.41;5073853;28;45615;-74
2022/12/21 00:14:16;;;;;;;;;8.00;7.25;;;;;-146.50;100.00;59256.41;5071081;28;45347;-75
2022/12/21 00:16:42;;;;;;;;;6.25;6.25;;;;;-146.50;100.00;59256.41;5074193;27;45413;-74
2022/12/21 00:19:12;;;;;;;;;7.25;7.25;;;;;-146.50;100.00;59256.41;5073898;27;45470;-74
2022/12/21 00:21:38;;;;;;;;;8.00;8.00;;;;;-146.50;100.00;59256.41;5073353;27;46997;-74
2022/12/21 00:24:04;;;;;;;;;8.25;8.00;;;;;-146.50;100.00;59256.41;5074025;27;45416;-74
2022/12/21 00:26:33;;;;;;;;;10.50;9.75;;;;;-146.50;100.00;59256.41;5073849;27;45451;-74
2022/12/21 00:28:58;;;;;;;;;8.75;7.00;;;;;-146.50;100.00;59256.41;5073800;28;45365;-74
2022/12/21 00:31:30;;;;;;;;;8.00;8.00;;;;;-146.50;100.00;59256.41;5072489;27;47285;-74
2022/12/21 00:33:56;;;;;;;;;6.25;6.25;;;;;-146.50;100.00;59256.41;5074513;28;45385;-72
2022/12/21 00:36:24;;;;;;;;;8.00;7.25;;;;;-146.50;100.00;59256.41;5075457;28;45322;-74
2022/12/21 00:38:49;;;;;;;;;9.00;7.50;;;;;-146.50;100.00;59256.41;5075380;28;45299;-75
2022/12/21 00:41:18;;;;;;;;;5.75;5.75;;;;;-146.50;100.00;59256.41;5074925;28;45460;-74
2022/12/21 00:43:43;;;;;;;;;4.00;3.50;;;;;-146.50;100.00;59256.41;5075548;27;45394;-74
2022/12/21 00:46:15;;;;;;;;;6.75;6.50;;;;;-146.50;100.00;59256.41;5074004;27;45475;-74
2022/12/21 00:48:40;;;;;;;;;8.75;7.75;;;;;-146.50;100.00;59256.41;5072930;28;45500;-74
2022/12/21 00:51:08;;;;;;;;;6.75;6.75;;;;;-146.50;100.00;59256.41;5074079;27;46407;-74
2022/12/21 00:53:34;;;;;;;;;9.00;6.75;;;;;-146.50;100.00;59256.41;5072964;27;45386;-74
2022/12/21 00:56:01;;;;;;;;;7.75;7.75;;;;;-146.50;100.00;59256.41;5071145;27;45738;-74
2022/12/21 00:58:29;;;;;;;;;7.50;7.50;;;;;-146.50;100.00;59256.41;5073417;27;45491;-74
2022/12/21 01:00:56;;;;;;;;;7.25;7.25;;;;;-146.50;100.00;59256.41;5072220;27;45599;-74
2022/12/21 01:03:23;;;;;;;;;10.25;8.00;;;;;-146.50;100.00;59256.41;5071927;27;45607;-74
2022/12/21 01:05:50;;;;;;;;;7.50;7.50;;;;;-146.50;100.00;59256.41;5071904;28;45530;-75
2022/12/21 01:08:17;;;;;;;;;6.50;6.50;;;;;-146.50;100.00;59256.41;5071488;28;45519;-74
2022/12/21 01:10:43;;;;;;;;;7.75;6.75;;;;;-146.50;100.00;59256.41;5071977;28;45531;-74
2022/12/21 01:13:11;;;;;;;;;7.75;7.75;;;;;-146.50;100.00;59256.41;5072122;28;45437;-74
2022/12/21 01:15:43;;;;;;;;;7.00;7.00;;;;;-146.50;100.00;59256.41;5072204;28;45483;-74
2022/12/21 01:18:10;;;;;;;;;6.00;6.00;;;;;-146.50;100.00;59256.41;5072056;28;45327;-74
2022/12/21 01:20:45;;;;;;;;;8.25;6.00;;;;;-146.50;100.00;59256.41;5071884;28;46225;-75
2022/12/21 01:23:10;;;;;;;;;4.75;3.50;;;;;-146.50;100.00;59256.41;5071700;27;45477;-74
2022/12/21 01:25:35;;;;;;;;;6.00;5.00;;;;;-146.50;100.00;59256.41;5070707;28;45435;-73
2022/12/21 01:28:01;;;;;;;;;7.75;6.50;;;;;-146.50;100.00;59256.41;5071775;27;45632;-74
2022/12/21 01:30:27;;;;;;;;;6.50;6.25;;;;;-146.50;100.00;59256.41;5071844;27;45673;-75
2022/12/21 01:32:52;;;;;;;;;7.00;7.00;;;;;-146.50;100.00;59256.41;5072438;27;45441;-74
2022/12/21 01:35:19;;;;;;;;;6.00;6.00;;;;;-146.50;100.00;59256.41;5076614;28;45538;-74
2022/12/21 01:37:44;;;;;;;;;5.25;5.25;;;;;-146.50;100.00;59256.41;5077009;27;45399;-74
2022/12/21 01:40:11;;;;;;;;;9.25;6.00;;;;;-146.50;100.00;59256.41;5076471;28;47435;-74
2022/12/21 01:42:36;;;;;;;;;6.50;6.50;;;;;-146.50;100.00;59256.41;5076226;27;45640;-74
2022/12/21 01:45:19;;;;;;;;;6.25;6.25;;;;;-146.50;100.00;59256.41;5076400;27;45290;-74
2022/12/21 01:47:56;;;;;;;;;1.00;1.00;;;;;-146.50;100.00;59256.41;5077228;27;45612;-74
2022/12/21 01:50:26;;;;;;;;;5.00;5.00;;;;;-146.50;100.00;59256.41;5076325;27;46201;-75
2022/12/21 01:52:55;;;;;;;;;4.75;3.25;;;;;-146.50;100.00;59256.41;5076309;27;45741;-74
2022/12/21 01:55:21;;;;;;;;;2.00;2.00;;;;;-146.50;100.00;59256.41;5076307;27;45519;-74
2022/12/21 01:57:46;;;;;;;;;1.00;1.00;;;;;-146.50;100.00;59256.41;5074779;28;45501;-74
2022/12/21 02:00:12;;;;;;;;;1.00;1.00;;;;;-146.50;100.00;59256.41;5076420;27;46261;-74
2022/12/21 02:02:56;;;;;;;;;1.00;1.00;;;;;-146.50;100.00;59256.41;5076143;28;45291;-74
2022/12/21 02:05:35;;;;;;;;;0.00;0.00;;;;;-146.50;100.00;59256.41;5074752;28;45397;-74
2022/12/21 02:08:03;;;;;;;;;0.67;0.67;;;;;-146.50;100.00;59256.41;5075037;28;45440;-74
2022/12/21 02:10:29;;;;;;;;;1.33;1.00;;;;;-146.50;100.00;59256.41;5075813;28;46101;-74
2022/12/21 02:13:01;;;;;;;;;0.00;0.00;;;;;-146.50;100.00;59256.41;5075924;27;45586;-73
2022/12/21 02:15:44;;;;;;;;;0.33;0.33;;;;;-146.50;100.00;59256.41;5076551;27;45587;-74
2022/12/21 02:18:45;;;;;;;;;1.00;1.00;;;;;-146.50;100.00;59256.41;5076094;27;45498;-74
2022/12/21 02:21:22;;;;;;;;;0.67;0.67;;;;;-146.50;100.00;59256.41;5012663;28;47039;-74
2022/12/21 02:24:25;;;;;;;;;0.67;0.67;;;;;-146.50;100.00;59256.41;5012536;28;45503;-74
2022/12/21 02:27:19;;;;;;;;;1.00;1.00;;;;;-146.50;100.00;59256.41;5012477;28;45448;-74
2022/12/21 02:30:03;;;;;;;;;0.33;0.33;;;;;-146.50;100.00;59256.41;5012487;28;45460;-74
2022/12/21 02:32:52;;;;;;;;;0.00;0.00;;;;;-146.50;100.00;59256.41;5012877;28;45653;-72
2022/12/21 02:35:49;;;;;;;;;1.00;1.00;;;;;-146.50;100.00;59256.41;5012879;28;45386;-73
2022/12/21 02:38:36;;;;;;;;;1.00;1.00;;;;;-146.50;100.00;59256.41;5013091;28;45661;-73
2022/12/21 02:41:04;;;;;;;;;2.75;1.75;;;;;-146.50;100.00;59256.41;5012883;28;45582;-73
2022/12/21 02:46:42;;;;;;;;;0.50;0.50;;;;;-146.50;100.00;59256.41;5012542;28;45431;-73
2022/12/21 02:49:20;;;;;;;;;1.00;1.00;;;;;-146.50;100.00;59256.41;5012853;28;45467;-73
2022/12/21 02:51:49;;;;;;;;;2.00;2.00;;;;;-146.50;100.00;59256.41;5012903;28;45554;-73
2022/12/21 02:54:17;;;;;;;;;1.00;1.00;;;;;-146.50;100.00;59256.41;5012362;28;45368;-73
2022/12/21 02:56:42;;;;;;;;;1.00;1.00;;;;;-146.50;100.00;59256.41;5012875;28;45479;-73
2022/12/21 02:59:12;;;;;;;;;1.00;1.00;;;;;-146.50;100.00;59256.41;5072468;28;45548;-73
2022/12/21 03:01:46;;;;;;;;;1.00;1.00;;;;;-146.50;100.00;59256.41;5075341;27;45362;-73
2022/12/21 03:04:50;;;;;;;;;1.00;1.00;;;;;-146.50;100.00;59256.41;5075456;28;46458;-72
2022/12/21 03:07:43;;;;;;;;;2.00;2.00;;;;;-146.50;100.00;59256.41;5075085;28;45652;-73
2022/12/21 03:10:27;;;;;;;;;2.00;2.00;;;;;-146.50;100.00;59256.41;5075032;28;45484;-73
2022/12/21 03:12:52;;;;;;;;;3.00;2.00;;;;;-146.50;100.00;59256.41;5075551;27;45604;-73
2022/12/21 03:15:37;;;;;;;;;1.00;1.00;;;;;-146.50;100.00;59256.41;5075229;27;46384;-73
2022/12/21 03:18:12;;;;;;;;;1.00;1.00;;;;;-146.50;100.00;59256.41;5075083;27;45467;-73
2022/12/21 03:20:42;;;;;;;;;1.50;0.75;;;;;-146.50;100.00;59256.41;5075508;27;45425;-73
2022/12/21 03:23:16;;;;;;;;;0.75;0.75;;;;;-146.50;100.00;59256.41;5075734;27;45543;-74
2022/12/21 03:25:53;;;;;;;;;1.00;1.00;;;;;-146.50;100.00;59256.41;5074786;28;45430;-73
2022/12/21 03:28:25;;;;;;;;;2.00;2.00;;;;;-146.50;100.00;59256.41;5074134;27;45372;-74
2022/12/21 03:30:55;;;;;;;;;0.00;0.00;;;;;-146.50;100.00;59256.41;5073697;27;45417;-74
2022/12/21 03:33:24;;;;;;;;;1.75;1.75;;;;;-146.50;100.00;59256.41;5073638;28;45442;-73
2022/12/21 03:35:53;;;;;;;;;3.00;3.00;;;;;-146.50;100.00;59256.41;5074583;28;45405;-74
2022/12/21 03:38:28;;;;;;;;;4.50;2.25;;;;;-146.50;100.00;59256.41;5075233;27;45395;-74
2022/12/21 03:40:59;;;;;;;;;2.25;2.25;;;;;-146.50;100.00;59256.41;5107785;27;45456;-73
2022/12/21 03:43:43;;;;;;;;;1.50;1.50;;;;;-146.50;100.00;59256.41;5075368;27;45382;-73
2022/12/21 03:46:19;;;;;;;;;1.50;1.00;;;;;-146.50;100.00;59256.41;5090938;27;45441;-74
2022/12/21 03:48:50;;;;;;;;;1.75;1.75;;;;;-146.50;100.00;59256.41;5075488;27;45433;-73
2022/12/21 03:51:40;;;;;;;;;1.25;1.00;;;;;-146.50;100.00;59256.41;5075525;27;45412;-74
2022/12/21 03:54:14;;;;;;;;;3.00;1.00;;;;;-146.50;100.00;59256.41;5075049;28;45289;-74
2022/12/21 03:56:41;;;;;;;;;0.00;0.00;;;;;-146.50;100.00;59256.41;5073620;27;45511;-74
2022/12/21 03:59:08;;;;;;;;;1.50;1.25;;;;;-146.50;100.00;59256.41;5074570;27;45333;-74
2022/12/21 04:02:12;;;;;;;;;1.00;1.00;;;;;-146.50;100.00;59256.41;5074492;28;45463;-74
2022/12/21 04:04:52;;;;;;;;;2.00;2.00;;;;;-146.50;100.00;59256.41;5074138;28;45488;-74
2022/12/21 04:07:24;;;;;;;;;1.00;1.00;;;;;-146.50;100.00;59256.41;5074338;27;46483;-73
2022/12/21 04:09:58;;;;;;;;;1.00;1.00;;;;;-146.50;100.00;59256.41;5073769;28;45382;-74
2022/12/21 04:12:36;;;;;;;;;0.00;0.00;;;;;-146.50;100.00;59256.41;5074744;27;45577;-74
2022/12/21 04:15:23;;;;;;;;;1.50;1.50;;;;;-146.50;100.00;59256.41;5073265;28;45444;-74
2022/12/21 04:17:51;;;;;;;;;1.00;1.00;;;;;-146.50;100.00;59256.41;5073297;28;46979;-74
2022/12/21 04:20:19;;;;;;;;;2.75;2.25;;;;;-146.50;100.00;59256.41;5073576;27;45350;-74
2022/12/21 04:28:27;;;;;;;;;1.00;1.00;;;;;-146.50;100.00;59256.41;5074081;28;46165;-74
2022/12/21 04:30:52;;;;;;;;;1.75;1.75;;;;;-146.50;100.00;59256.41;5073549;27;45425;-73
2022/12/21 04:33:20;;;;;;;;;1.00;1.00;;;;;-146.50;100.00;59256.41;5074151;28;45369;-74
2022/12/21 04:38:34;;;;;;;;;1.00;1.00;;;;;-146.50;100.00;59256.41;5074200;28;45454;-73
2022/12/21 04:41:00;;;;;;;;;1.00;1.00;;;;;-146.50;100.00;59256.41;5074171;27;45438;-74
2022/12/21 04:43:26;;;;;;;;;1.00;1.00;;;;;-146.50;100.00;59256.41;5074373;27;45389;-74
2022/12/21 04:46:06;;;;;;;;;0.67;0.67;;;;;-146.50;100.00;59256.41;5073518;28;45367;-74
2022/12/21 04:48:32;;;;;;;;;1.00;1.00;;;;;-146.50;100.00;59256.41;5073816;27;46337;-73
2022/12/21 04:51:10;;;;;;;;;1.00;1.00;;;;;-146.50;100.00;59256.41;5074230;27;45417;-73
2022/12/21 04:53:36;;;;;;;;;1.00;1.00;;;;;-146.50;100.00;59256.41;5074281;27;45568;-74
2022/12/21 04:56:01;;;;;;;;;1.25;1.25;;;;;-146.50;100.00;59256.41;5073971;27;45549;-73
2022/12/21 04:58:27;;;;;;;;;1.00;1.00;;;;;-146.50;100.00;59256.41;5073748;27;46044;-73
2022/12/21 05:00:52;;;;;;;;;2.50;2.50;;;;;-146.50;100.00;59256.41;5073551;28;45362;-73
2022/12/21 05:03:19;;;;;;;;;1.00;1.00;;;;;-146.50;100.00;59256.41;5073378;28;45413;-73
2022/12/21 05:05:45;;;;;;;;;1.33;1.00;;;;;-146.50;100.00;59256.41;5073752;28;45384;-73
2022/12/21 05:08:10;;;;;;;;;1.25;1.25;;;;;-146.50;100.00;59256.41;5072138;27;47513;-73
2022/12/21 05:10:36;;;;;;;;;1.33;1.33;;;;;-146.50;100.00;59256.41;5073589;27;45297;-74
2022/12/21 05:13:01;;;;;;;;;1.00;1.00;;;;;-146.50;100.00;59256.41;5073457;27;45288;-74
2022/12/21 05:15:27;;;;;;;;;1.75;1.75;;;;;-146.50;100.00;59256.41;5067165;27;45288;-73
2022/12/21 05:17:52;;;;;;;;;2.25;2.25;;;;;-146.50;100.00;59256.41;5068241;28;45361;-72
2022/12/21 05:20:17;;;;;;;;;3.50;3.25;;;;;-146.50;100.00;59256.41;5072069;27;45298;-73
2022/12/21 05:22:46;;;;;;;;;2.25;2.25;;;;;-146.50;100.00;59256.41;5073013;27;45350;-73
2022/12/21 05:25:12;;;;;;;;;4.00;4.00;;;;;-146.50;100.00;59256.41;5073519;28;45419;-73
2022/12/21 05:27:37;;;;;;;;;3.25;3.25;;;;;-146.50;100.00;59256.41;5073514;28;45910;-73
2022/12/21 05:30:03;;;;;;;;;3.25;3.25;;;;;-146.50;100.00;59256.41;5073597;28;45399;-73
2022/12/21 05:32:28;;;;;;;;;2.00;2.00;;;;;-146.50;100.00;59256.41;5073463;28;45411;-73
2022/12/21 05:34:54;;;;;;;;;2.00;2.00;;;;;-146.50;100.00;59256.41;5073350;27;45417;-73
2022/12/21 05:37:19;;;;;;;;;13.00;13.00;;;;;-146.50;100.00;59256.41;5071772;28;45653;-73
2022/12/21 05:39:45;;;;;;;;;18.00;17.25;;;;;-146.50;100.00;59256.41;5073163;28;45745;-73
2022/12/21 05:42:10;;;;;;;;;11.25;10.75;;;;;-146.50;100.00;59256.41;5071668;28;45960;-73
2022/12/21 05:44:35;;;;;;;;;9.00;9.00;;;;;-146.50;100.00;59256.41;5064470;28;46201;-73
2022/12/21 05:47:01;;;;;;;;;4.00;3.75;;;;;-146.50;100.00;59256.41;5052678;28;47208;-73
2022/12/21 05:49:26;;;;;;;;;3.50;3.50;;;;;-146.50;100.00;59256.41;5063847;28;45455;-74
2022/12/21 05:51:51;;;;;;;;;2.50;2.00;;;;;-146.50;100.00;59256.41;5073536;27;45324;-73
2022/12/21 05:54:17;;;;;;;;;2.00;2.00;;;;;-146.50;100.00;59256.41;5067033;27;45466;-72
2022/12/21 05:56:43;;;;;;;;;2.00;2.00;;;;;-146.50;100.00;59256.41;5057894;27;45422;-72
2022/12/21 05:59:08;;;;;;;;;3.00;3.00;;;;;-146.50;100.00;59256.41;5061229;28;45671;-73
2022/12/21 06:01:34;;;;;;;;;1.75;1.75;;;;;-146.50;100.00;59256.41;5072623;28;45605;-73
2022/12/21 06:04:00;;;;;;;;;3.00;3.00;;;;;-146.50;100.00;59256.41;5073452;27;45469;-73
2022/12/21 06:06:25;;;;;;;;;2.25;2.25;;;;;-146.50;100.00;59256.41;5071697;28;47246;-73
2022/12/21 06:08:51;;;;;;;;;2.00;2.00;;;;;-146.50;100.00;59256.41;5073313;28;45413;-73
2022/12/21 06:11:22;;;;;;;;;1.00;1.00;;;;;-146.50;100.00;59256.41;5073320;28;45386;-74
2022/12/21 06:13:48;;;;;;;;;4.25;2.75;;;;;-146.50;100.00;59256.41;5071444;28;45409;-74
2022/12/21 06:16:17;;;;;;;;;2.00;2.00;;;;;-146.50;100.00;59256.41;5063249;28;47449;-74
2022/12/21 06:18:42;;;;;;;;;2.50;2.25;;;;;-146.50;100.00;59256.41;5073073;28;46533;-74
2022/12/21 06:21:10;;;;;;;;;3.00;3.00;;;;;-146.50;100.00;59256.41;5075091;28;45491;-74
2022/12/21 06:23:35;;;;;;;;;5.00;4.00;;;;;-146.50;100.00;59256.41;5092073;27;45446;-75
2022/12/21 06:26:03;;;;;;;;;4.00;2.50;;;;;-146.50;100.00;59256.41;5068599;28;45543;-73
2022/12/21 06:28:30;;;;;;;;;3.25;3.00;;;;;-146.50;100.00;59256.41;5063005;28;45440;-73
2022/12/21 06:31:02;;;;;;;;;4.00;3.75;;;;;-146.50;100.00;59256.41;5083196;27;45618;-73
2022/12/21 06:33:27;;;;;;;;;4.00;4.00;;;;;-146.50;100.00;59256.41;5081916;27;45370;-73
2022/12/21 06:35:55;;;;;;;;;3.00;3.00;;;;;-146.50;100.00;59256.41;5075683;28;46203;-73
2022/12/21 06:38:22;;;;;;;;;3.00;3.00;;;;;-146.50;100.00;59256.41;5076472;28;45690;-73
2022/12/21 06:40:58;;;;;;;;;4.00;2.00;;;;;-146.50;100.00;59256.41;5076434;28;45673;-74
2022/12/21 06:43:26;;;;;;;;;1.00;1.00;;;;;-146.50;100.00;59256.41;5076583;28;45417;-74
2022/12/21 06:46:13;;;;;;;;;3.25;3.25;;;;;-146.50;100.00;59256.41;5074666;27;46368;-73
2022/12/21 06:48:39;;;;;;;;;0.00;0.00;;;;;-146.50;100.00;59256.41;5076303;27;45420;-74
2022/12/21 06:51:08;;;;;;;;;2.00;1.00;;;;;-146.50;100.00;59256.41;5077261;28;45395;-74
2022/12/21 06:53:36;;;;;;;;;1.00;1.00;;;;;-146.50;100.00;59256.41;5077402;28;45405;-73
2022/12/21 06:56:04;;;;;;;;;3.00;1.25;;;;;-146.50;100.00;59256.41;5076815;27;46124;-75
2022/12/21 06:58:30;;;;;;;;;1.25;1.25;;;;;-146.50;100.00;59256.41;5077590;27;45437;-74
2022/12/21 07:00:56;;;;;;;;;1.25;1.25;;;;;-146.50;100.00;59256.41;5077984;28;45444;-74
2022/12/21 07:03:22;;;;;;;;;2.75;2.00;;;;;-146.50;100.00;59256.41;5076694;28;45471;-74
2022/12/21 07:05:49;;;;;;;;;2.75;2.00;;;;;-146.50;100.00;59256.41;5075872;28;45485;-74
2022/12/21 07:08:15;;;;;;;;;1.50;1.50;;;;;-146.50;100.00;59256.41;5075859;27;45420;-74
2022/12/21 07:10:40;;;;;;;;;1.25;1.25;;;;;-146.50;100.00;59256.41;5075608;28;45393;-73
2022/12/21 07:13:06;;;;;;;;;4.00;2.25;;;;;-146.50;100.00;59256.41;5075380;28;45498;-74
2022/12/21 07:15:32;;;;;;;;;2.00;2.00;;;;;-146.50;100.00;59256.41;5075623;27;45445;-73
2022/12/21 07:17:58;;;;;;;;;3.00;2.00;;;;;-146.50;100.00;59256.41;5073888;28;45847;-75
2022/12/21 07:20:23;;;;;;;;;3.75;2.50;;;;;-146.50;100.00;59256.41;5076073;27;45315;-75
2022/12/21 07:22:49;;;;;;;;;2.00;2.00;;;;;-146.50;100.00;59256.41;5075901;27;45321;-74
2022/12/21 07:25:14;;;;;;;;;2.00;2.00;;;;;-146.50;100.00;59256.41;5075055;27;46087;-73
2022/12/21 07:27:40;;;;;;;;;2.00;2.00;;;;;-146.50;100.00;59256.41;5075621;27;45353;-74
2022/12/21 07:30:06;;;;;;;;;2.00;2.00;;;;;-146.50;100.00;59256.41;5075711;27;45324;-74
2022/12/21 07:32:32;;;;;;;;;4.00;2.00;;;;;-146.50;100.00;59256.41;5075858;27;45520;-72
2022/12/21 07:34:57;;;;;;;;;2.50;2.50;;;;;-146.50;100.00;59256.41;5075573;28;45932;-73
2022/12/21 07:37:23;;;;;;;;;2.00;2.00;;;;;-146.50;100.00;59256.41;5075112;28;45414;-73
2022/12/21 07:39:48;;;;;;;;;2.00;2.00;;;;;-146.50;100.00;59256.41;5075301;27;45713;-73
2022/12/21 07:42:13;;;;;;;;;2.00;2.00;;;;;-146.50;100.00;59256.41;5074118;28;45382;-72
2022/12/21 07:44:39;;;;;;;;;3.00;3.00;;;;;-146.50;100.00;59256.41;5075394;27;46095;-73
2022/12/21 07:47:04;;;;;;;;;3.75;3.75;;;;;-146.50;100.00;59256.41;5075068;27;45377;-73
2022/12/21 07:49:30;;;;;;;;;2.75;2.75;;;;;-146.50;100.00;59256.41;5075469;27;45585;-72
2022/12/21 07:51:55;;;;;;;;;2.25;2.25;;;;;-146.50;100.00;59256.41;5075132;27;45512;-72
2022/12/21 07:54:20;;;;;;;;;2.50;2.50;;;;;-146.50;100.00;59256.41;5074686;27;47036;-72
2022/12/21 07:56:46;;;;;;;;;3.25;2.25;;;;;-146.50;100.00;59256.41;5090273;27;45762;-72
2022/12/21 07:59:11;;;;;;;;;4.00;2.00;;;;;-146.50;100.00;59256.41;5075241;27;45342;-72
2022/12/21 08:01:36;;;;;;;;;3.25;3.25;;;;;-146.50;100.00;59256.41;5075329;28;45422;-72
2022/12/21 08:04:02;;;;;;;;;4.00;3.00;;;;;-146.50;100.00;59256.41;5074790;27;46021;-73
2022/12/21 08:06:27;;;;;;;;;1.00;1.00;;;;;-146.50;100.00;59256.41;5075096;28;45472;-73
2022/12/21 08:08:52;;;;;;;;;6.00;3.75;;;;;-146.50;100.00;59256.41;5075458;27;45335;-72
2022/12/21 08:11:19;;;;;;;;;4.75;2.25;;;;;-146.50;100.00;59256.41;5075373;27;45406;-72
2022/12/21 08:13:45;;;;;;;;;8.25;5.00;;;;;-146.50;100.00;59256.41;5074800;27;46656;-72
2022/12/21 08:16:13;;;;;;;;;2.00;2.00;;;;;-146.50;100.00;59256.41;5074826;28;45437;-73
2022/12/21 08:18:39;;;;;;;;;2.50;2.00;;;;;-146.50;100.00;59256.41;5074971;28;45392;-72
2022/12/21 08:21:04;;;;;;;;;3.00;3.00;;;;;-146.50;100.00;59256.41;5074723;28;45443;-72
2022/12/21 08:23:30;;;;;;;;;3.00;2.00;;;;;-146.50;100.00;59256.41;5074802;27;45657;-72
2022/12/21 08:26:06;;;;;;;;;2.00;2.00;;;;;-146.50;100.00;59256.41;5074329;27;45465;-73
2022/12/21 08:28:32;;;;;;;;;3.25;3.00;;;;;-146.50;100.00;59256.41;5074769;27;45427;-72
2022/12/21 08:31:13;;;;;;;;;9.00;5.00;;;;;-146.50;100.00;59256.41;5074692;28;45331;-72
2022/12/21 08:33:41;;;;;;;;;2.00;2.00;;;;;-146.50;100.00;59256.41;5074463;27;47432;-72
2022/12/21 08:36:15;;;;;;;;;2.75;1.00;;;;;-146.50;100.00;59256.41;5072868;28;45371;-72
2022/12/21 08:38:40;;;;;;;;;3.00;1.00;;;;;-146.50;100.00;59256.41;5073356;28;45554;-72
2022/12/21 08:41:06;;;;;;;;;2.00;1.00;;;;;-146.50;100.00;59256.41;5074453;27;45406;-72
2022/12/21 08:43:34;;;;;;;;;2.50;2.00;;;;;-146.50;100.00;59256.41;5073884;27;46092;-72
2022/12/21 08:46:05;;;;;;;;;3.25;1.75;;;;;-146.50;100.00;59256.41;5074559;28;45426;-76
2022/12/21 08:48:31;;;;;;;;;3.25;1.25;;;;;-146.50;100.00;59256.41;5074198;27;45423;-76
2022/12/21 08:50:57;;;;;;;;;4.00;2.00;;;;;-146.50;100.00;59256.41;5072821;28;45518;-76
2022/12/21 08:53:23;;;;;;;;;2.00;2.00;;;;;-146.50;100.00;59256.41;5074259;27;45349;-76
2022/12/21 08:55:48;;;;;;;;;4.25;2.75;;;;;-146.50;100.00;59256.41;5072590;28;45677;-76
2022/12/21 08:58:14;;;;;;;;;3.00;3.00;;;;;-146.50;100.00;59256.41;5072683;28;45446;-76
2022/12/21 09:00:42;;;;;;;;;2.00;1.00;;;;;-146.50;100.00;59256.41;5074716;28;45336;-75
2022/12/21 09:03:07;;;;;;;;;4.50;3.50;;;;;-146.50;100.00;59256.41;5072416;28;46514;-75
2022/12/21 09:05:33;;;;;;;;;1.00;1.00;;;;;-146.50;100.00;59256.41;5073265;28;45477;-76
2022/12/21 09:08:00;;;;;;;;;0.25;0.25;;;;;-146.50;100.00;59256.41;5072722;28;45358;-75
2022/12/21 09:10:26;;;;;;;;;2.25;1.50;;;;;-146.50;100.00;59256.41;5074070;28;45418;-75
2022/12/21 09:12:51;;;;;;;;;2.00;2.00;;;;;-146.50;100.00;59256.41;5073337;27;45365;-75
2022/12/21 09:15:17;;;;;;;;;3.50;3.00;;;;;-146.50;100.00;59256.41;5074033;27;45350;-75
2022/12/21 09:17:42;;;;;;;;;2.25;2.00;;;;;-146.50;100.00;59256.41;5074079;27;45476;-75
2022/12/21 09:20:08;;;;;;;;;3.50;3.50;;;;;-146.50;100.00;59256.41;5073635;27;45386;-75
2022/12/21 09:22:33;;;;;;;;;3.50;2.50;;;;;-146.50;100.00;59256.41;5073736;27;46198;-74
2022/12/21 09:24:59;;;;;;;;;4.00;3.00;;;;;-146.50;100.00;59256.41;5073906;27;45344;-73
2022/12/21 09:27:24;;;;;;;;;3.50;3.50;;;;;-146.50;100.00;59256.41;5074007;27;45352;-74
2022/12/21 09:29:49;;;;;;;;;3.50;3.00;;;;;-146.50;100.00;59256.41;5074035;27;45284;-75
2022/12/21 09:32:14;;;;;;;;;1.50;1.50;;;;;-146.50;100.00;59256.41;5073827;27;46635;-74
2022/12/21 09:34:40;;;;;;;;;2.00;2.00;;;;;-146.50;100.00;59256.41;5073694;27;45326;-75
2022/12/21 09:37:05;;;;;;;;;3.75;2.50;;;;;-146.50;100.00;59256.41;5072711;28;45374;-74
2022/12/21 09:39:31;;;;;;;;;4.00;3.00;;;;;-146.50;100.00;59256.41;5074006;27;45330;-75
2022/12/21 09:42:12;;;;;;;;;2.00;2.00;;;;;-146.50;100.00;59256.41;5073578;27;45417;-74
2022/12/21 09:44:48;;;;;;;;;4.75;3.00;;;;;-146.50;100.00;59256.41;5073643;27;45463;-75
2022/12/21 09:47:29;;;;;;;;;3.00;3.00;;;;;-146.50;100.00;59256.41;5073759;28;45370;-76
2022/12/21 09:49:59;;;;;;;;;4.00;2.75;;;;;-146.50;100.00;59256.41;5073139;27;45488;-76
2022/12/21 09:52:34;;;;;;;;;3.00;3.00;;;;;-146.50;100.00;59256.41;5073402;27;45677;-75
2022/12/21 09:55:05;;;;;;;;;7.00;3.75;;;;;-146.50;100.00;59256.41;5075642;28;45369;-75
2022/12/21 09:57:35;;;;;;;;;1.00;1.00;;;;;-146.50;100.00;59256.41;5077522;27;45416;-74
2022/12/21 10:00:12;;;;;;;;;5.50;5.00;;;;;-146.50;100.00;59256.41;5077823;27;45549;-74
2022/12/21 10:02:49;;;;;;;;;3.00;3.00;;;;;-146.50;100.00;59256.41;5077267;28;45421;-75
2022/12/21 10:05:35;;;;;;;;;4.50;3.00;;;;;-146.50;100.00;59256.41;5078011;28;45629;-75
2022/12/21 10:08:34;;;;;;;;;4.50;4.50;;;;;-146.50;100.00;59256.41;5078488;28;45374;-74
2022/12/21 10:11:18;;;;;;;;;4.50;3.50;;;;;-146.50;100.00;59256.41;5078906;28;45363;-74
2022/12/21 10:13:53;;;;;;;;;3.50;3.50;;;;;-146.50;100.00;59256.41;5077388;28;45676;-74
2022/12/21 10:16:43;;;;;;;;;4.50;3.25;;;;;-146.50;100.00;59256.41;5076744;27;45349;-74
2022/12/21 10:19:14;;;;;;;;;1.00;1.00;;;;;-146.50;100.00;59256.41;5076568;27;45409;-73
2022/12/21 10:22:00;;;;;;;;;2.00;2.00;;;;;-146.50;100.00;59256.41;5076663;27;45342;-75
2022/12/21 10:24:36;;;;;;;;;5.25;3.00;;;;;-146.50;100.00;59256.41;5076802;27;46414;-75
2022/12/21 10:27:12;;;;;;;;;4.00;4.00;;;;;-146.50;100.00;59256.41;5076127;27;45390;-74
2022/12/21 10:29:44;;;;;;;;;4.75;4.75;;;;;-146.50;100.00;59256.41;5076687;27;45395;-75
2022/12/21 10:32:13;;;;;;;;;2.75;2.75;;;;;-146.50;100.00;59256.41;5076229;27;45335;-75
2022/12/21 10:34:46;;;;;;;;;4.00;3.50;;;;;-146.50;100.00;59256.41;5076179;28;46377;-76
2022/12/21 10:37:23;;;;;;;;;7.25;6.00;;;;;-146.50;100.00;59256.41;5075956;27;45565;-76
2022/12/21 10:39:55;;;;;;;;;6.25;5.25;;;;;-146.50;100.00;59256.41;5076347;27;45342;-75
2022/12/21 10:42:38;;;;;;;;;4.25;4.25;;;;;-146.50;100.00;59256.41;5076435;27;45680;-74
2022/12/21 10:45:04;;;;;;;;;7.00;4.00;;;;;-146.50;100.00;59256.41;5074659;28;48516;-76
2022/12/21 10:47:29;;;;;;;;;5.00;3.50;;;;;-146.50;100.00;59256.41;5076156;27;45509;-75
2022/12/21 10:50:13;;;;;;;;;4.00;3.75;;;;;-146.50;100.00;59256.41;5076187;27;45738;-75
2022/12/21 10:52:44;;;;;;;;;3.00;3.00;;;;;-146.50;100.00;59256.41;5076482;28;45565;-76
2022/12/21 10:55:18;;;;;;;;;2.00;2.00;;;;;-146.50;100.00;59256.41;5074791;28;46422;-73
2022/12/21 10:57:50;;;;;;;;;2.50;2.50;;;;;-146.50;100.00;59256.41;5075880;28;45416;-74
2022/12/21 11:00:21;;;;;;;;;2.75;2.75;;;;;-146.50;100.00;59256.41;5071348;28;45397;-74
2022/12/21 11:02:48;;;;;;;;;3.00;3.00;;;;;-146.50;100.00;59256.41;5055681;28;45414;-74
2022/12/21 11:05:33;;;;;;;;;3.00;3.00;;;;;-146.50;100.00;59256.41;5054987;28;46630;-75
2022/12/21 11:08:13;;;;;;;;;3.75;3.75;;;;;-146.50;100.00;59256.41;5055281;28;45368;-75
2022/12/21 11:10:46;;;;;;;;;3.50;3.50;;;;;-146.50;100.00;59256.41;5055647;28;45449;-73
2022/12/21 11:13:13;;;;;;;;;3.75;3.00;;;;;-146.50;100.00;59256.41;5066011;28;45381;-73
2022/12/21 11:15:39;;;;;;;;;3.00;2.00;;;;;-146.50;100.00;59256.41;5075622;27;45633;-74
2022/12/21 11:18:39;;;;;;;;;3.50;3.50;;;;;-146.50;100.00;59256.41;5074410;28;46066;-74
2022/12/21 11:21:28;;;;;;;;;3.25;3.25;;;;;-146.50;100.00;59256.41;5075476;27;45358;-74
2022/12/21 11:24:01;;;;;;;;;4.75;3.75;;;;;-146.50;100.00;59256.41;5075645;28;45412;-74
2022/12/21 11:26:32;;;;;;;;;6.25;5.50;;;;;-146.50;100.00;59256.41;5074203;27;48021;-74
2022/12/21 11:29:00;;;;;;;;;4.50;4.00;;;;;-146.50;100.00;59256.41;5075501;27;45454;-74
2022/12/21 11:31:28;;;;;;;;;5.75;5.25;;;;;-146.50;100.00;59256.41;5075418;27;45345;-74
2022/12/21 11:33:53;;;;;;;;;1.75;1.75;;;;;-146.50;100.00;59256.41;5075650;27;45385;-74
2022/12/21 11:36:19;;;;;;;;;4.50;3.00;;;;;-146.50;100.00;59256.41;5075262;28;46156;-73